Time;durP1;ratioP1;P1;durP2;ratioP2;P2;SDS_P1;SDS_P2;PMS_P1;PMS_P2;Temp;Humidity;BMP_temperature;BMP_pressure;BME280_temperature;BME280_humidity;BME280_pressure;Samples;Min_cycle;Max_cycle;Signal;HPM_P1;HPM_P2
2023/06/09 00:01:58;;;;;;;;;4.00;4.00;;;;;15.96;68.48;101670.19;5048265;28;9056;-68
2023/06/09 00:04:26;;;;;;;;;5.33;5.33;;;;;15.95;69.20;101664.94;5048999;28;9863;-68
2023/06/09 00:06:54;;;;;;;;;4.33;3.00;;;;;15.96;69.08;101674.75;5050608;28;9080;-68
2023/06/09 00:09:21;;;;;;;;;4.00;4.00;;;;;15.98;68.50;101661.81;5049586;28;9171;-68
2023/06/09 00:11:49;;;;;;;;;6.00;5.33;;;;;15.93;68.26;101658.91;5049211;28;9008;-67
2023/06/09 00:14:16;;;;;;;;;4.67;4.00;;;;;15.87;68.55;101668.69;5042623;28;9051;-68
2023/06/09 00:16:46;;;;;;;;;4.67;3.67;;;;;15.82;68.80;101665.78;5049012;28;9114;-68
2023/06/09 00:19:14;;;;;;;;;7.00;7.00;;;;;15.79;69.32;101666.19;5050968;28;9091;-67
2023/06/09 00:21:43;;;;;;;;;5.67;5.67;;;;;15.80;68.68;101663.28;5030466;28;9006;-68
2023/06/09 00:24:10;;;;;;;;;6.00;5.67;;;;;15.81;69.25;101662.25;5056396;28;9064;-67
2023/06/09 00:26:36;;;;;;;;;4.33;3.00;;;;;15.86;68.53;101666.22;5047598;28;9072;-66
2023/06/09 00:29:03;;;;;;;;;3.33;3.33;;;;;15.78;68.56;101667.25;5049204;28;9098;-67
2023/06/09 00:31:29;;;;;;;;;6.00;5.33;;;;;15.75;68.75;101663.06;5040088;28;9149;-68
2023/06/09 00:33:56;;;;;;;;;3.33;3.33;;;;;15.71;69.03;101656.38;5031887;28;9044;-66
2023/06/09 00:36:22;;;;;;;;;2.33;2.00;;;;;15.67;68.46;101660.56;5024009;28;9222;-66
2023/06/09 00:38:49;;;;;;;;;3.33;3.33;;;;;15.64;68.70;101654.66;5030396;28;9248;-65
2023/06/09 00:41:15;;;;;;;;;3.33;3.00;;;;;15.71;69.03;101659.09;5048737;28;9168;-67
2023/06/09 00:43:47;;;;;;;;;1.67;1.67;;;;;15.73;68.43;101648.88;5032786;28;9074;-65
2023/06/09 00:46:15;;;;;;;;;6.33;3.00;;;;;15.75;68.59;101656.81;5049986;28;8913;-67
2023/06/09 00:48:41;;;;;;;;;6.67;6.00;;;;;15.70;67.24;101653.88;5032897;28;9198;-67
2023/06/09 00:51:08;;;;;;;;;4.00;3.33;;;;;15.68;68.08;101653.28;5049328;28;8996;-67
2023/06/09 00:53:35;;;;;;;;;5.33;3.00;;;;;15.62;67.13;101651.34;5050554;28;9061;-66
2023/06/09 00:56:02;;;;;;;;;4.67;4.67;;;;;15.53;67.55;101653.44;5040098;28;9057;-68
2023/06/09 00:58:30;;;;;;;;;2.67;2.33;;;;;15.50;67.26;101656.53;5013112;28;8989;-67
2023/06/09 01:00:58;;;;;;;;;6.33;3.00;;;;;15.42;66.22;101656.75;5039964;28;9221;-67
2023/06/09 01:03:26;;;;;;;;;5.00;5.00;;;;;15.45;66.03;101649.03;5041050;28;9191;-67
2023/06/09 01:06:09;;;;;;;;;4.33;4.33;;;;;15.42;65.83;101645.88;5032316;28;9028;-67
2023/06/09 01:08:55;;;;;;;;;3.00;3.00;;;;;15.41;65.47;101645.06;5031732;28;9200;-67
2023/06/09 01:11:50;;;;;;;;;3.67;3.33;;;;;15.39;65.53;101646.28;5057958;28;9457;-67
2023/06/09 01:15:06;;;;;;;;;4.33;4.33;;;;;15.34;65.15;101645.03;5045205;28;9943;-67
2023/06/09 01:17:36;;;;;;;;;6.33;4.33;;;;;15.30;65.77;101640.22;5009982;28;9128;-66
2023/06/09 01:20:04;;;;;;;;;2.00;2.00;;;;;15.40;64.98;101639.84;5051640;28;9161;-66
2023/06/09 01:22:49;;;;;;;;;4.00;4.00;;;;;15.40;65.05;101643.41;5049284;28;9057;-67
2023/06/09 01:25:26;;;;;;;;;4.67;3.67;;;;;15.37;65.11;101638.38;5035225;28;9056;-66
2023/06/09 01:27:57;;;;;;;;;3.00;3.00;;;;;15.41;65.39;101644.22;5048347;28;9021;-66
2023/06/09 01:30:32;;;;;;;;;4.33;4.33;;;;;15.45;65.03;101640.88;5031640;28;9146;-65
2023/06/09 01:33:03;;;;;;;;;3.00;3.00;;;;;15.39;65.35;101636.28;5025955;28;9246;-67
2023/06/09 01:35:30;;;;;;;;;4.00;4.00;;;;;15.29;65.14;101631.25;5046762;28;9037;-67
2023/06/09 01:37:58;;;;;;;;;7.67;6.67;;;;;15.20;65.73;101637.94;5043402;28;9105;-66
2023/06/09 01:40:25;;;;;;;;;5.00;5.00;;;;;15.22;66.34;101624.97;5039411;28;9243;-67
2023/06/09 01:42:52;;;;;;;;;6.00;4.33;;;;;15.19;65.92;101620.00;5032000;28;8997;-66
2023/06/09 01:45:19;;;;;;;;;7.00;5.00;;;;;15.14;65.98;101621.63;5043912;28;9273;-67
2023/06/09 01:47:46;;;;;;;;;3.33;2.67;;;;;15.16;66.21;101617.69;5047355;28;9159;-67
2023/06/09 01:50:30;;;;;;;;;8.67;5.33;;;;;15.13;65.95;101626.22;5047977;28;9880;-66
2023/06/09 01:53:19;;;;;;;;;3.00;3.00;;;;;15.13;66.41;101619.97;5030006;28;9152;-67
2023/06/09 01:55:54;;;;;;;;;4.33;3.67;;;;;15.08;66.07;101623.31;5044979;28;9878;-66
2023/06/09 01:58:31;;;;;;;;;8.00;5.33;;;;;15.16;66.60;101619.56;5027732;28;9112;-66
2023/06/09 02:01:00;;;;;;;;;7.00;5.33;;;;;15.18;65.81;101618.31;5022511;28;9286;-67
2023/06/09 02:03:30;;;;;;;;;5.00;3.00;;;;;15.07;65.45;101616.22;5020142;28;9155;-66
2023/06/09 02:05:58;;;;;;;;;6.00;3.67;;;;;15.01;65.65;101617.00;5029620;28;9208;-67
2023/06/09 02:08:29;;;;;;;;;4.33;2.67;;;;;14.97;66.59;101615.75;5031958;28;9885;-67
2023/06/09 02:10:55;;;;;;;;;6.33;4.67;;;;;14.96;66.88;101611.38;5049736;28;9234;-66
2023/06/09 02:13:22;;;;;;;;;6.00;6.00;;;;;14.93;66.54;101606.38;5052123;28;9144;-67
2023/06/09 02:15:49;;;;;;;;;6.33;3.00;;;;;14.84;66.83;101614.69;5048174;28;9264;-67
2023/06/09 02:18:21;;;;;;;;;4.33;4.33;;;;;14.79;66.92;101610.91;5047567;28;9317;-67
2023/06/09 02:20:49;;;;;;;;;6.67;4.33;;;;;14.83;67.58;101621.16;5031618;28;9298;-66
2023/06/09 02:23:19;;;;;;;;;5.33;5.00;;;;;14.82;67.66;101608.59;5031606;28;9329;-66
2023/06/09 02:25:46;;;;;;;;;4.33;3.67;;;;;14.88;67.48;101606.97;5041506;28;9295;-65
2023/06/09 02:28:13;;;;;;;;;5.00;3.00;;;;;14.90;66.81;101609.47;5049856;28;9218;-67
2023/06/09 02:30:41;;;;;;;;;6.33;5.00;;;;;14.87;67.08;101608.03;5048173;28;9236;-67
2023/06/09 02:33:07;;;;;;;;;4.67;3.00;;;;;14.90;67.46;101606.75;5048318;28;9252;-67
2023/06/09 02:35:34;;;;;;;;;5.33;5.00;;;;;14.95;66.67;101607.84;5030222;28;9232;-67
2023/06/09 02:38:05;;;;;;;;;6.33;6.00;;;;;14.91;66.79;101597.59;5046283;28;9299;-66
2023/06/09 02:40:32;;;;;;;;;5.00;3.00;;;;;14.88;67.41;101595.31;5027668;28;9253;-67
2023/06/09 02:43:00;;;;;;;;;7.00;6.33;;;;;14.86;67.85;101603.63;5031197;28;9998;-67
2023/06/09 02:45:26;;;;;;;;;5.67;4.67;;;;;14.88;67.31;101600.72;5048943;28;9386;-68
2023/06/09 02:47:53;;;;;;;;;7.00;5.33;;;;;14.79;67.63;101600.06;5031338;28;9244;-66
2023/06/09 02:50:20;;;;;;;;;6.00;6.00;;;;;14.76;68.10;101593.19;5019391;28;9299;-67
2023/06/09 02:52:53;;;;;;;;;3.67;3.00;;;;;14.74;67.94;101607.97;5031775;28;9561;-67
2023/06/09 02:55:20;;;;;;;;;6.33;4.67;;;;;14.73;67.86;101598.16;5051659;28;9302;-67
2023/06/09 02:57:48;;;;;;;;;6.00;5.00;;;;;14.78;68.08;101601.91;5048126;28;9354;-68
2023/06/09 03:00:17;;;;;;;;;8.00;4.25;;;;;14.82;67.48;101605.91;5051901;28;9347;-67
2023/06/09 03:02:46;;;;;;;;;2.67;2.67;;;;;14.81;67.98;101595.28;5049282;28;10202;-67
2023/06/09 03:05:14;;;;;;;;;6.33;5.00;;;;;14.79;67.86;101586.53;5032860;28;9110;-67
2023/06/09 03:07:41;;;;;;;;;9.75;7.25;;;;;14.73;67.96;101590.88;5048892;28;9150;-67
2023/06/09 03:10:08;;;;;;;;;4.33;4.33;;;;;14.71;67.98;101587.53;5050786;28;9774;-66
2023/06/09 03:12:39;;;;;;;;;3.67;3.67;;;;;14.68;68.46;101584.41;5034275;28;9234;-67
2023/06/09 03:15:07;;;;;;;;;8.00;7.00;;;;;14.66;69.43;101587.28;5049196;28;9218;-67
2023/06/09 03:17:34;;;;;;;;;2.33;2.33;;;;;14.63;69.51;101595.84;5051099;28;9323;-67
2023/06/09 03:20:05;;;;;;;;;7.33;5.67;;;;;14.69;69.68;101591.47;5034239;28;9307;-67
2023/06/09 03:22:32;;;;;;;;;5.67;5.00;;;;;14.79;69.43;101594.66;5032796;28;9382;-66
2023/06/09 03:24:58;;;;;;;;;5.67;5.67;;;;;14.82;69.29;101597.75;5053208;28;9273;-67
2023/06/09 03:27:25;;;;;;;;;5.00;5.00;;;;;14.75;69.37;101591.50;5030486;28;9367;-66
2023/06/09 03:29:52;;;;;;;;;5.67;5.00;;;;;14.68;70.20;101596.06;5045992;28;9396;-67
2023/06/09 03:32:18;;;;;;;;;5.00;5.00;;;;;14.63;70.72;101587.72;5046933;28;9447;-67
2023/06/09 03:34:47;;;;;;;;;9.25;6.25;;;;;14.61;71.01;101599.78;5037505;28;9324;-67
2023/06/09 03:37:14;;;;;;;;;4.00;3.67;;;;;14.59;70.94;101592.69;5034915;28;9393;-66
2023/06/09 03:39:41;;;;;;;;;7.00;5.00;;;;;14.67;71.13;101593.56;5050404;28;9224;-67
2023/06/09 03:42:10;;;;;;;;;6.33;4.33;;;;;14.76;71.07;101597.75;5015555;28;9327;-65
2023/06/09 03:44:37;;;;;;;;;6.33;5.67;;;;;14.73;71.22;101592.75;5027945;28;9213;-66
2023/06/09 03:47:03;;;;;;;;;7.00;6.50;;;;;14.72;71.14;101591.91;5052006;28;9397;-65
2023/06/09 03:49:30;;;;;;;;;6.00;4.00;;;;;14.71;71.66;101590.25;5048848;28;9449;-66
2023/06/09 03:51:57;;;;;;;;;7.67;5.00;;;;;14.71;72.00;101592.13;5049724;28;9318;-65
2023/06/09 03:54:23;;;;;;;;;6.67;5.67;;;;;14.71;71.85;101582.13;5032474;28;9319;-66
2023/06/09 03:56:50;;;;;;;;;7.00;7.00;;;;;14.68;71.55;101585.22;5035758;28;9312;-66
2023/06/09 03:59:17;;;;;;;;;5.00;3.00;;;;;14.66;71.48;101581.88;5035537;28;9353;-66
2023/06/09 04:01:44;;;;;;;;;8.25;6.50;;;;;14.69;71.55;101576.03;5031521;28;9411;-65
2023/06/09 04:04:13;;;;;;;;;6.00;5.00;;;;;14.68;71.78;101574.38;5033603;28;9449;-67
2023/06/09 04:06:45;;;;;;;;;4.00;4.00;;;;;14.73;72.10;101582.72;5032713;28;9304;-67
2023/06/09 04:09:15;;;;;;;;;8.00;6.00;;;;;14.78;70.73;101582.94;5030312;28;9233;-66
2023/06/09 04:11:41;;;;;;;;;3.67;3.67;;;;;14.73;70.09;101581.91;5037284;28;9395;-66
2023/06/09 04:14:09;;;;;;;;;5.33;5.00;;;;;14.72;70.02;101589.19;5048467;28;9469;-66
2023/06/09 04:16:36;;;;;;;;;3.67;3.67;;;;;14.81;69.83;101584.44;5033667;28;9318;-66
2023/06/09 04:19:03;;;;;;;;;7.00;7.00;;;;;14.83;70.22;101582.38;5049444;28;9239;-66
2023/06/09 04:21:30;;;;;;;;;5.33;5.33;;;;;14.86;69.80;101572.97;5041667;28;9374;-67
2023/06/09 04:23:56;;;;;;;;;8.00;6.25;;;;;14.81;69.51;101587.13;5050307;28;9318;-66
2023/06/09 04:26:23;;;;;;;;;8.33;3.67;;;;;14.81;70.00;101590.69;5040496;28;9485;-66
2023/06/09 04:28:53;;;;;;;;;5.33;3.00;;;;;14.83;69.36;101582.38;5050125;28;9319;-65
2023/06/09 04:31:23;;;;;;;;;5.00;5.00;;;;;14.81;69.29;101595.28;5037589;28;9321;-65
2023/06/09 04:33:51;;;;;;;;;7.00;7.00;;;;;14.82;69.32;101591.50;5032277;28;10234;-66
2023/06/09 04:36:18;;;;;;;;;5.33;5.33;;;;;14.81;68.72;101582.56;5025735;28;9369;-65
2023/06/09 04:38:45;;;;;;;;;5.00;2.67;;;;;14.85;68.83;101585.69;5048097;28;9248;-65
2023/06/09 04:41:12;;;;;;;;;6.00;5.00;;;;;14.86;68.65;101586.53;5048411;28;9240;-66
2023/06/09 04:43:41;;;;;;;;;7.50;7.50;;;;;14.85;68.73;101582.97;5047455;28;9451;-65
2023/06/09 04:46:11;;;;;;;;;5.00;3.00;;;;;14.87;68.53;101588.19;5032385;28;9542;-66
2023/06/09 04:48:39;;;;;;;;;4.33;4.33;;;;;14.89;68.69;101586.13;5032204;28;9479;-65
2023/06/09 04:51:06;;;;;;;;;8.00;7.25;;;;;14.94;68.61;101589.88;5056548;28;9459;-67
2023/06/09 04:53:39;;;;;;;;;7.33;6.33;;;;;15.01;68.77;101584.47;5042475;28;9510;-66
2023/06/09 04:56:06;;;;;;;;;6.33;5.33;;;;;15.05;68.61;101591.16;5048411;28;9359;-67
2023/06/09 04:58:35;;;;;;;;;4.33;3.00;;;;;15.09;68.54;101595.97;5032176;28;9420;-65
2023/06/09 05:01:03;;;;;;;;;6.00;5.00;;;;;15.15;67.90;101593.47;5035039;28;9286;-65
2023/06/09 05:03:29;;;;;;;;;10.50;7.00;;;;;15.08;68.33;101593.47;5032352;28;9456;-67
2023/06/09 05:05:57;;;;;;;;;9.50;7.50;;;;;15.06;68.61;101600.97;5044242;28;9469;-67
2023/06/09 05:08:26;;;;;;;;;5.33;5.33;;;;;15.07;68.50;101599.94;5026105;28;9396;-66
2023/06/09 05:10:54;;;;;;;;;5.67;5.67;;;;;15.03;68.40;101598.69;5038221;28;9359;-68
2023/06/09 05:13:22;;;;;;;;;3.67;3.67;;;;;14.99;68.81;101587.41;5048626;28;10071;-68
2023/06/09 05:15:49;;;;;;;;;10.00;6.33;;;;;15.02;69.21;101588.84;5048481;28;9406;-66
2023/06/09 05:18:17;;;;;;;;;4.00;4.00;;;;;15.03;68.71;101593.25;5036342;28;10106;-67
2023/06/09 05:20:44;;;;;;;;;6.75;6.00;;;;;14.95;68.47;101593.41;5068847;28;9244;-67
2023/06/09 05:23:12;;;;;;;;;6.00;5.67;;;;;14.95;68.86;101599.72;5038260;28;9370;-67
2023/06/09 05:25:38;;;;;;;;;10.67;7.33;;;;;14.98;68.49;101590.31;5047751;28;9454;-67
2023/06/09 05:28:05;;;;;;;;;11.67;4.00;;;;;14.99;68.31;101592.84;5030398;28;9439;-67
2023/06/09 05:30:31;;;;;;;;;8.33;7.00;;;;;15.00;68.50;101597.22;5035529;28;9375;-67
2023/06/09 05:32:58;;;;;;;;;13.00;8.00;;;;;15.05;68.71;101594.72;5035330;28;9337;-67
2023/06/09 05:35:25;;;;;;;;;8.00;6.00;;;;;15.15;68.72;101594.31;5047903;28;9373;-68
2023/06/09 05:37:52;;;;;;;;;6.67;3.67;;;;;15.35;68.16;101599.75;5047826;28;9373;-67
2023/06/09 05:40:22;;;;;;;;;4.33;4.33;;;;;15.53;67.57;101601.88;5047203;28;9427;-68
2023/06/09 05:42:49;;;;;;;;;5.67;5.33;;;;;15.68;67.19;101607.13;5048952;28;9314;-67
2023/06/09 05:45:16;;;;;;;;;6.00;6.00;;;;;15.73;66.83;101601.91;5049400;28;9341;-68
2023/06/09 05:47:43;;;;;;;;;9.33;6.33;;;;;15.79;66.99;101609.19;5049987;28;9939;-69
2023/06/09 05:50:09;;;;;;;;;7.00;6.00;;;;;15.86;66.92;101617.34;5045813;28;9145;-68
2023/06/09 05:52:36;;;;;;;;;8.33;7.33;;;;;15.92;66.48;101608.34;5055606;28;9064;-69
2023/06/09 05:55:04;;;;;;;;;7.00;6.00;;;;;15.88;66.16;101607.09;5057479;28;9138;-68
2023/06/09 05:57:30;;;;;;;;;8.00;8.00;;;;;15.92;66.89;101601.06;5048488;28;9018;-68
2023/06/09 05:59:57;;;;;;;;;5.00;5.00;;;;;15.90;66.58;101596.88;5053599;28;9167;-68
2023/06/09 06:02:24;;;;;;;;;9.67;7.67;;;;;15.87;66.98;101602.72;5037721;28;9133;-69
2023/06/09 06:04:51;;;;;;;;;10.33;6.33;;;;;15.83;66.87;101602.28;5048502;28;8997;-68
2023/06/09 06:07:20;;;;;;;;;11.67;8.00;;;;;15.72;67.50;101603.78;5034003;28;9187;-68
2023/06/09 06:09:46;;;;;;;;;9.33;7.00;;;;;15.67;67.90;101600.84;5048581;28;9064;-67
2023/06/09 06:12:13;;;;;;;;;9.00;9.00;;;;;15.58;67.78;101607.50;5041767;28;9259;-68
2023/06/09 06:14:39;;;;;;;;;10.67;7.67;;;;;15.49;68.40;101608.75;5047508;28;9309;-67
2023/06/09 06:17:06;;;;;;;;;6.00;6.00;;;;;15.44;68.96;101606.66;5048970;28;9210;-67
2023/06/09 06:19:32;;;;;;;;;8.33;7.00;;;;;15.51;69.27;101612.06;5030556;28;9240;-67
2023/06/09 06:21:59;;;;;;;;;10.00;6.33;;;;;15.59;68.80;101603.72;5030621;28;9367;-67
2023/06/09 06:24:25;;;;;;;;;6.00;6.00;;;;;15.66;69.13;101609.19;5047093;28;9233;-66
2023/06/09 06:26:52;;;;;;;;;10.33;8.00;;;;;15.71;68.41;101610.22;5044123;28;9394;-66
2023/06/09 06:29:19;;;;;;;;;9.33;8.67;;;;;15.72;69.10;101602.94;5044173;28;10012;-66
2023/06/09 06:31:48;;;;;;;;;10.00;9.67;;;;;15.71;68.82;101599.38;5059299;28;9223;-67
2023/06/09 06:34:15;;;;;;;;;10.33;10.00;;;;;15.70;69.07;101610.44;5051265;28;9281;-67
2023/06/09 06:36:41;;;;;;;;;6.33;6.33;;;;;15.68;69.62;101618.81;5034175;28;9428;-67
2023/06/09 06:39:08;;;;;;;;;10.00;8.00;;;;;15.72;69.68;101609.22;5057666;28;9247;-66
2023/06/09 06:41:34;;;;;;;;;11.67;9.00;;;;;15.75;69.47;101619.63;5052566;28;9255;-67
2023/06/09 06:44:01;;;;;;;;;10.67;10.33;;;;;15.89;68.96;101612.31;5051415;28;9273;-66
2023/06/09 06:46:27;;;;;;;;;6.67;6.67;;;;;15.96;68.89;101604.16;5052946;28;9412;-66
2023/06/09 06:48:54;;;;;;;;;8.33;7.67;;;;;15.98;69.14;101610.22;5049962;28;9301;-67
2023/06/09 06:51:21;;;;;;;;;7.67;6.33;;;;;16.07;68.91;101609.78;5050943;28;9228;-67
2023/06/09 06:53:47;;;;;;;;;10.00;10.00;;;;;16.11;68.74;101610.19;5052723;28;9216;-67
2023/06/09 06:56:14;;;;;;;;;12.00;8.00;;;;;16.23;68.56;101615.81;5025123;28;9372;-67
2023/06/09 06:58:41;;;;;;;;;8.67;8.67;;;;;16.24;68.15;101596.56;5048906;28;9308;-67
2023/06/09 07:01:07;;;;;;;;;10.67;8.33;;;;;16.18;68.11;101605.59;5035043;28;9307;-66
2023/06/09 07:03:35;;;;;;;;;14.67;8.00;;;;;16.17;68.54;101609.34;5034140;28;9442;-67
2023/06/09 07:06:02;;;;;;;;;7.67;6.67;;;;;16.15;68.52;101611.44;5051881;28;9311;-66
2023/06/09 07:08:29;;;;;;;;;11.00;9.33;;;;;16.16;68.96;101604.94;5052616;28;9220;-66
2023/06/09 07:10:55;;;;;;;;;8.00;7.00;;;;;16.27;69.10;101606.19;5048545;28;9356;-67
2023/06/09 07:13:22;;;;;;;;;14.67;10.00;;;;;16.33;68.50;101610.78;5034363;28;9981;-65
2023/06/09 07:15:48;;;;;;;;;18.00;12.33;;;;;16.44;67.78;101609.25;5049758;28;9296;-69
2023/06/09 07:18:15;;;;;;;;;11.00;9.33;;;;;16.47;68.07;101606.13;5048214;28;9234;-67
2023/06/09 07:20:41;;;;;;;;;8.33;8.00;;;;;16.58;68.64;101605.47;5050880;28;9271;-66
2023/06/09 07:23:08;;;;;;;;;14.00;13.00;;;;;16.62;67.85;101611.31;5050711;28;9151;-66
2023/06/09 07:25:36;;;;;;;;;11.33;9.33;;;;;16.54;68.22;101615.94;5033128;28;9300;-66
2023/06/09 07:28:03;;;;;;;;;12.00;11.00;;;;;16.55;68.43;101614.03;5050757;28;9159;-62
2023/06/09 07:30:29;;;;;;;;;12.33;11.67;;;;;16.52;68.07;101615.28;5040511;28;9223;-67
2023/06/09 07:32:56;;;;;;;;;8.67;8.67;;;;;16.55;68.40;101612.16;5052961;28;9227;-66
2023/06/09 07:35:23;;;;;;;;;9.33;9.33;;;;;16.60;68.82;101614.22;5045846;28;9277;-66
2023/06/09 07:37:50;;;;;;;;;16.67;13.00;;;;;16.69;68.69;101612.94;5048829;28;9230;-68
2023/06/09 07:40:16;;;;;;;;;11.00;10.00;;;;;16.68;68.68;101616.69;5048905;28;9384;-68
2023/06/09 07:42:47;;;;;;;;;12.00;9.00;;;;;16.75;68.98;101614.00;5045501;28;9145;-68
2023/06/09 07:45:13;;;;;;;;;15.33;12.33;;;;;16.82;68.60;101616.69;5050744;28;9144;-69
2023/06/09 07:47:40;;;;;;;;;12.00;8.00;;;;;16.89;68.59;101614.75;5049686;28;9218;-69
2023/06/09 07:50:08;;;;;;;;;15.00;11.00;;;;;16.98;68.47;101613.47;5050167;28;9174;-67
2023/06/09 07:52:37;;;;;;;;;11.67;11.33;;;;;17.00;67.73;101616.78;5050956;28;9272;-69
2023/06/09 07:55:05;;;;;;;;;12.33;11.33;;;;;16.95;67.87;101606.56;5050047;28;9250;-68
2023/06/09 07:57:37;;;;;;;;;13.00;11.67;;;;;16.91;67.91;101615.38;5051655;28;9167;-68
2023/06/09 08:00:06;;;;;;;;;16.67;12.00;;;;;16.93;68.24;101610.53;5051267;28;9246;-68
2023/06/09 08:02:42;;;;;;;;;12.33;12.00;;;;;16.96;68.16;101608.22;5050791;28;9010;-67
2023/06/09 08:05:15;;;;;;;;;16.00;12.00;;;;;17.07;67.96;101606.72;5033004;28;9212;-67
2023/06/09 08:07:42;;;;;;;;;16.33;15.00;;;;;17.13;67.98;101613.97;5033454;28;9006;-69
2023/06/09 08:10:09;;;;;;;;;9.00;9.00;;;;;17.18;68.30;101607.91;5050101;28;9825;-68
2023/06/09 08:12:37;;;;;;;;;16.67;15.33;;;;;17.23;67.75;101617.06;5048651;28;9842;-67
2023/06/09 08:15:05;;;;;;;;;17.00;15.00;;;;;17.29;67.76;101605.28;5033530;28;9279;-69
2023/06/09 08:17:31;;;;;;;;;10.33;10.33;;;;;17.38;67.52;101605.88;5048177;28;9235;-67
2023/06/09 08:19:58;;;;;;;;;14.67;10.67;;;;;17.48;67.62;101610.81;5049807;28;8969;-68
2023/06/09 08:22:25;;;;;;;;;11.33;10.00;;;;;17.59;67.18;101606.56;5047850;28;9071;-68
2023/06/09 08:24:51;;;;;;;;;12.00;11.00;;;;;17.62;67.14;101596.03;5048779;28;9697;-68
2023/06/09 08:27:18;;;;;;;;;15.00;10.67;;;;;17.68;67.04;101599.78;5025495;28;8998;-68
2023/06/09 08:29:44;;;;;;;;;15.33;12.00;;;;;17.72;66.62;101599.09;5050072;28;9170;-67
2023/06/09 08:32:11;;;;;;;;;14.33;11.00;;;;;17.75;67.26;101603.31;5049638;28;8952;-68
2023/06/09 08:34:37;;;;;;;;;11.00;11.00;;;;;17.77;67.04;101599.28;5048784;28;8901;-69
2023/06/09 08:37:04;;;;;;;;;12.67;9.33;;;;;17.80;66.66;101600.75;5050283;28;9040;-68
2023/06/09 08:39:30;;;;;;;;;14.67;12.33;;;;;17.87;66.90;101600.69;5044788;28;8936;-68
2023/06/09 08:42:01;;;;;;;;;13.67;12.33;;;;;17.97;66.54;101599.09;5013848;28;8944;-69
2023/06/09 08:44:30;;;;;;;;;14.00;12.00;;;;;18.05;66.44;101595.25;5050359;28;9126;-68
2023/06/09 08:47:00;;;;;;;;;13.50;12.25;;;;;18.13;66.18;101594.94;5047548;28;9068;-68
2023/06/09 08:49:28;;;;;;;;;16.33;13.00;;;;;18.18;66.08;101600.56;5031129;28;9597;-67
2023/06/09 08:51:57;;;;;;;;;18.67;18.00;;;;;18.18;66.21;101597.00;5049191;28;8941;-68
2023/06/09 08:54:25;;;;;;;;;12.00;10.33;;;;;18.22;65.80;101604.50;5030850;28;9141;-68
2023/06/09 08:56:52;;;;;;;;;15.00;12.33;;;;;18.26;65.62;101597.53;5031696;28;9956;-69
2023/06/09 08:59:20;;;;;;;;;15.67;15.67;;;;;18.26;65.65;101602.97;5048752;28;9080;-69
2023/06/09 09:01:50;;;;;;;;;11.33;11.33;;;;;18.36;65.73;101605.19;5030054;28;9041;-68
2023/06/09 09:04:17;;;;;;;;;15.25;14.25;;;;;18.42;65.66;101606.16;5031528;28;8925;-68
2023/06/09 09:06:44;;;;;;;;;15.67;15.00;;;;;18.49;65.47;101602.31;5030555;28;8845;-68
2023/06/09 09:09:10;;;;;;;;;15.00;15.00;;;;;18.52;65.35;101598.28;5046497;28;8890;-68
2023/06/09 09:11:37;;;;;;;;;16.00;14.67;;;;;18.61;65.40;101607.00;5048796;28;8901;-68
2023/06/09 09:14:11;;;;;;;;;16.75;13.00;;;;;18.67;65.01;101606.06;5042540;28;8916;-66
2023/06/09 09:16:37;;;;;;;;;17.50;12.50;;;;;18.69;65.12;101607.50;5047906;28;8841;-66
2023/06/09 09:19:04;;;;;;;;;16.67;14.00;;;;;18.74;65.11;101602.22;5049918;28;8839;-68
2023/06/09 09:21:34;;;;;;;;;14.25;12.00;;;;;18.89;65.32;101609.19;5045486;28;9757;-68
2023/06/09 09:24:04;;;;;;;;;17.75;15.50;;;;;18.94;65.02;101607.41;5031829;28;8863;-69
2023/06/09 09:26:31;;;;;;;;;16.75;16.75;;;;;18.97;64.70;101606.13;5046758;28;8849;-68
2023/06/09 09:29:05;;;;;;;;;18.33;15.00;;;;;19.02;64.62;101608.97;5048155;28;8811;-67
2023/06/09 09:31:35;;;;;;;;;16.00;15.00;;;;;19.07;64.63;101611.84;5048781;28;8937;-67
2023/06/09 09:34:02;;;;;;;;;14.00;14.00;;;;;19.10;64.61;101607.81;5052310;28;8828;-67
2023/06/09 09:36:29;;;;;;;;;13.33;13.33;;;;;19.19;64.40;101601.78;5034593;28;8827;-69
2023/06/09 09:39:00;;;;;;;;;16.75;13.50;;;;;19.25;64.11;101594.59;5049907;28;8986;-68
2023/06/09 09:41:27;;;;;;;;;15.00;14.00;;;;;19.31;63.90;101596.38;5048638;28;9538;-67
2023/06/09 09:43:56;;;;;;;;;21.33;18.67;;;;;19.35;63.58;101608.47;5028833;28;8841;-68
2023/06/09 09:46:23;;;;;;;;;14.00;14.00;;;;;19.35;63.53;101592.09;5049316;28;8924;-69
2023/06/09 09:48:50;;;;;;;;;20.00;16.33;;;;;19.34;63.77;101595.91;5048602;28;8865;-68
2023/06/09 09:51:20;;;;;;;;;23.00;20.67;;;;;19.31;63.31;101593.63;5049626;28;8902;-69
2023/06/09 09:53:46;;;;;;;;;25.75;18.25;;;;;19.31;64.21;101590.91;5048637;28;8996;-68
2023/06/09 09:56:22;;;;;;;;;20.67;18.00;;;;;19.31;64.14;101592.81;5049634;28;8827;-67
2023/06/09 09:58:53;;;;;;;;;19.75;18.25;;;;;19.39;64.88;101596.03;5049464;28;8947;-68
2023/06/09 10:01:24;;;;;;;;;17.50;15.25;;;;;19.49;65.12;101603.66;5052796;28;8958;-68
2023/06/09 10:03:56;;;;;;;;;25.67;19.33;;;;;19.58;64.57;101594.06;5053714;28;8827;-69
2023/06/09 10:06:27;;;;;;;;;25.25;19.75;;;;;19.54;64.65;101587.41;5052993;28;8961;-68
2023/06/09 10:08:55;;;;;;;;;18.00;17.75;;;;;19.59;64.67;101586.69;5052186;28;8854;-68
2023/06/09 10:11:28;;;;;;;;;19.00;15.00;;;;;19.69;64.26;101586.97;5053712;28;8941;-68
2023/06/09 10:13:54;;;;;;;;;23.67;20.33;;;;;19.71;64.82;101587.56;5032532;28;8817;-68
2023/06/09 10:16:23;;;;;;;;;18.25;17.75;;;;;19.76;65.21;101588.50;5032119;28;8898;-68
2023/06/09 10:18:50;;;;;;;;;16.50;15.00;;;;;19.87;65.21;101577.81;5033694;28;8883;-68
2023/06/09 10:21:18;;;;;;;;;24.25;22.50;;;;;19.98;63.23;101585.19;5033592;28;8828;-67
2023/06/09 10:23:44;;;;;;;;;25.25;20.50;;;;;20.02;62.90;101580.91;5033381;28;8809;-68
2023/06/09 10:26:12;;;;;;;;;15.00;13.75;;;;;20.05;63.99;101574.13;5033426;28;8825;-67
2023/06/09 10:28:39;;;;;;;;;18.75;15.25;;;;;20.10;63.75;101576.97;5032231;28;8829;-68
2023/06/09 10:31:11;;;;;;;;;21.00;16.25;;;;;20.15;64.15;101575.19;5015577;28;8837;-68
2023/06/09 10:33:43;;;;;;;;;15.75;15.25;;;;;20.31;64.68;101572.78;4999573;28;8848;-67
2023/06/09 10:36:10;;;;;;;;;16.50;15.00;;;;;20.35;64.98;101579.44;5033245;28;8848;-66
2023/06/09 10:38:45;;;;;;;;;16.50;16.50;;;;;20.37;65.11;101567.16;5015635;28;8829;-68
2023/06/09 10:41:27;;;;;;;;;17.00;14.25;;;;;20.38;65.17;101576.22;5033099;28;8841;-67
2023/06/09 10:44:09;;;;;;;;;17.50;17.50;;;;;20.42;64.86;101577.41;5033186;28;8821;-68
2023/06/09 10:46:41;;;;;;;;;18.00;18.00;;;;;20.46;64.77;101570.38;5033156;28;8848;-71
2023/06/09 10:49:35;;;;;;;;;21.00;20.75;;;;;20.42;65.27;101572.75;5033082;28;8813;-68
2023/06/09 10:52:03;;;;;;;;;18.75;16.50;;;;;20.58;64.58;101567.59;5033265;28;8813;-68
2023/06/09 10:54:30;;;;;;;;;14.00;12.25;;;;;20.73;64.74;101573.38;5032833;28;8895;-67
2023/06/09 10:57:00;;;;;;;;;20.25;19.25;;;;;20.73;63.40;101567.91;5033149;28;8809;-67
2023/06/09 10:59:27;;;;;;;;;23.50;22.50;;;;;20.77;63.40;101569.09;5032243;28;8853;-67
2023/06/09 11:02:02;;;;;;;;;17.00;15.50;;;;;20.82;63.99;101560.97;5061407;23;8892;-68
2023/06/09 11:04:43;;;;;;;;;19.75;15.00;;;;;20.86;63.91;101551.19;5034814;28;8843;-68
2023/06/09 11:07:12;;;;;;;;;17.75;15.75;;;;;20.97;62.95;101546.75;5063190;28;8927;-68
2023/06/09 11:09:40;;;;;;;;;19.50;18.00;;;;;21.05;63.20;101540.03;5036546;28;8843;-68
2023/06/09 11:12:20;;;;;;;;;21.00;19.75;;;;;21.06;63.13;101542.50;5045771;28;8835;-68
2023/06/09 11:14:58;;;;;;;;;20.75;17.75;;;;;21.19;62.55;101544.94;5026799;28;8882;-68
2023/06/09 11:17:36;;;;;;;;;19.25;19.25;;;;;21.37;62.32;101535.69;5012515;28;8831;-69
2023/06/09 11:20:06;;;;;;;;;20.00;17.25;;;;;21.44;62.11;101532.78;5031303;28;8838;-67
2023/06/09 11:22:47;;;;;;;;;19.00;18.00;;;;;21.45;62.11;101531.69;5027617;28;8847;-68
2023/06/09 11:25:14;;;;;;;;;18.00;16.00;;;;;21.60;61.94;101525.63;5031569;28;8814;-67
2023/06/09 11:27:42;;;;;;;;;16.75;16.00;;;;;21.68;62.04;101517.00;5006616;28;8841;-68
2023/06/09 11:30:17;;;;;;;;;16.75;16.25;;;;;21.72;61.72;101516.22;5031066;28;8826;-67
2023/06/09 11:33:08;;;;;;;;;17.25;16.50;;;;;21.87;61.48;101517.50;5011384;28;8870;-68
2023/06/09 11:35:43;;;;;;;;;18.75;18.75;;;;;21.93;60.26;101517.34;5028027;28;9039;-68